sensor_id;sensor_type;location;lat;lon;timestamp;P1;durP1;ratioP1;P2;durP2;ratioP2
35646;SDS011;28680;45.642;13.756;2022-07-19T00:02:12;2.03;;;1.20;;
35646;SDS011;28680;45.642;13.756;2022-07-19T00:04:38;3.05;;;1.30;;
35646;SDS011;28680;45.642;13.756;2022-07-19T00:07:03;3.33;;;1.30;;
35646;SDS011;28680;45.642;13.756;2022-07-19T00:09:29;2.15;;;1.05;;
35646;SDS011;28680;45.642;13.756;2022-07-19T00:11:55;3.78;;;1.00;;
35646;SDS011;28680;45.642;13.756;2022-07-19T00:14:22;4.32;;;1.50;;
35646;SDS011;28680;45.642;13.756;2022-07-19T00:16:48;4.28;;;1.50;;
35646;SDS011;28680;45.642;13.756;2022-07-19T00:19:14;2.92;;;1.08;;
35646;SDS011;28680;45.642;13.756;2022-07-19T00:21:40;1.67;;;1.17;;
35646;SDS011;28680;45.642;13.756;2022-07-19T00:24:06;2.03;;;1.10;;
35646;SDS011;28680;45.642;13.756;2022-07-19T00:26:32;2.35;;;0.88;;
35646;SDS011;28680;45.642;13.756;2022-07-19T00:28:58;1.58;;;1.13;;
35646;SDS011;28680;45.642;13.756;2022-07-19T00:31:25;4.95;;;1.10;;
35646;SDS011;28680;45.642;13.756;2022-07-19T00:33:51;2.42;;;0.98;;
35646;SDS011;28680;45.642;13.756;2022-07-19T00:36:18;4.20;;;1.20;;
35646;SDS011;28680;45.642;13.756;2022-07-19T00:38:44;3.75;;;1.13;;
35646;SDS011;28680;45.642;13.756;2022-07-19T00:41:11;4.47;;;1.00;;
35646;SDS011;28680;45.642;13.756;2022-07-19T00:43:41;3.33;;;1.33;;
35646;SDS011;28680;45.642;13.756;2022-07-19T00:46:15;4.47;;;1.20;;
35646;SDS011;28680;45.642;13.756;2022-07-19T00:48:42;2.20;;;1.13;;
35646;SDS011;28680;45.642;13.756;2022-07-19T00:51:10;4.03;;;0.85;;
35646;SDS011;28680;45.642;13.756;2022-07-19T00:53:39;2.17;;;0.95;;
35646;SDS011;28680;45.642;13.756;2022-07-19T00:56:06;4.97;;;0.90;;
35646;SDS011;28680;45.642;13.756;2022-07-19T00:58:35;3.13;;;0.93;;
35646;SDS011;28680;45.642;13.756;2022-07-19T01:01:04;3.17;;;1.00;;
35646;SDS011;28680;45.642;13.756;2022-07-19T01:03:35;7.55;;;1.20;;
35646;SDS011;28680;45.642;13.756;2022-07-19T01:06:04;4.00;;;1.10;;
35646;SDS011;28680;45.642;13.756;2022-07-19T01:08:32;1.90;;;1.10;;
35646;SDS011;28680;45.642;13.756;2022-07-19T01:10:58;2.47;;;1.20;;
35646;SDS011;28680;45.642;13.756;2022-07-19T01:13:24;2.35;;;1.25;;
35646;SDS011;28680;45.642;13.756;2022-07-19T01:15:50;2.30;;;1.20;;
35646;SDS011;28680;45.642;13.756;2022-07-19T01:18:16;1.73;;;1.05;;
35646;SDS011;28680;45.642;13.756;2022-07-19T01:20:42;4.35;;;1.20;;
35646;SDS011;28680;45.642;13.756;2022-07-19T01:23:07;1.55;;;1.00;;
35646;SDS011;28680;45.642;13.756;2022-07-19T01:25:34;2.35;;;1.00;;
35646;SDS011;28680;45.642;13.756;2022-07-19T01:28:02;2.65;;;1.23;;
35646;SDS011;28680;45.642;13.756;2022-07-19T01:30:31;4.35;;;1.05;;
35646;SDS011;28680;45.642;13.756;2022-07-19T01:32:58;1.85;;;1.00;;
35646;SDS011;28680;45.642;13.756;2022-07-19T01:35:25;5.13;;;1.23;;
35646;SDS011;28680;45.642;13.756;2022-07-19T01:37:52;3.67;;;1.15;;
35646;SDS011;28680;45.642;13.756;2022-07-19T01:40:18;3.35;;;0.90;;
35646;SDS011;28680;45.642;13.756;2022-07-19T01:42:45;2.95;;;1.08;;
35646;SDS011;28680;45.642;13.756;2022-07-19T01:45:12;2.40;;;1.17;;
35646;SDS011;28680;45.642;13.756;2022-07-19T01:47:39;2.85;;;0.93;;
35646;SDS011;28680;45.642;13.756;2022-07-19T01:50:07;3.05;;;1.10;;
35646;SDS011;28680;45.642;13.756;2022-07-19T01:52:35;5.32;;;1.30;;
35646;SDS011;28680;45.642;13.756;2022-07-19T01:55:02;2.00;;;1.00;;
35646;SDS011;28680;45.642;13.756;2022-07-19T01:57:28;1.65;;;1.00;;
35646;SDS011;28680;45.642;13.756;2022-07-19T01:59:55;3.42;;;0.93;;
35646;SDS011;28680;45.642;13.756;2022-07-19T02:02:21;1.92;;;1.10;;
35646;SDS011;28680;45.642;13.756;2022-07-19T02:04:47;3.83;;;1.10;;
35646;SDS011;28680;45.642;13.756;2022-07-19T02:07:13;5.50;;;0.90;;
35646;SDS011;28680;45.642;13.756;2022-07-19T02:09:39;1.15;;;0.80;;
35646;SDS011;28680;45.642;13.756;2022-07-19T02:12:05;1.45;;;1.00;;
35646;SDS011;28680;45.642;13.756;2022-07-19T02:14:31;2.70;;;0.85;;
35646;SDS011;28680;45.642;13.756;2022-07-19T02:16:58;2.25;;;0.98;;
35646;SDS011;28680;45.642;13.756;2022-07-19T02:19:23;1.98;;;1.05;;
35646;SDS011;28680;45.642;13.756;2022-07-19T02:21:49;3.40;;;1.15;;
35646;SDS011;28680;45.642;13.756;2022-07-19T02:24:15;5.05;;;1.10;;
35646;SDS011;28680;45.642;13.756;2022-07-19T02:26:41;2.92;;;0.80;;
35646;SDS011;28680;45.642;13.756;2022-07-19T02:29:07;5.57;;;1.15;;
35646;SDS011;28680;45.642;13.756;2022-07-19T02:31:33;3.55;;;1.20;;
35646;SDS011;28680;45.642;13.756;2022-07-19T02:34:00;4.70;;;1.27;;
35646;SDS011;28680;45.642;13.756;2022-07-19T02:36:26;5.03;;;1.30;;
35646;SDS011;28680;45.642;13.756;2022-07-19T02:38:52;5.38;;;1.17;;
35646;SDS011;28680;45.642;13.756;2022-07-19T02:41:18;3.65;;;1.10;;
35646;SDS011;28680;45.642;13.756;2022-07-19T02:43:44;3.35;;;1.10;;
35646;SDS011;28680;45.642;13.756;2022-07-19T02:46:10;2.70;;;1.00;;
35646;SDS011;28680;45.642;13.756;2022-07-19T02:48:36;1.80;;;1.00;;
35646;SDS011;28680;45.642;13.756;2022-07-19T02:51:02;6.32;;;1.40;;
35646;SDS011;28680;45.642;13.756;2022-07-19T02:53:28;3.05;;;1.20;;
35646;SDS011;28680;45.642;13.756;2022-07-19T02:55:54;2.88;;;1.15;;
35646;SDS011;28680;45.642;13.756;2022-07-19T02:58:20;4.45;;;1.10;;
35646;SDS011;28680;45.642;13.756;2022-07-19T03:00:45;4.80;;;1.25;;
35646;SDS011;28680;45.642;13.756;2022-07-19T03:03:12;2.33;;;1.10;;
35646;SDS011;28680;45.642;13.756;2022-07-19T03:05:57;2.78;;;1.13;;
35646;SDS011;28680;45.642;13.756;2022-07-19T03:08:23;3.83;;;1.10;;
35646;SDS011;28680;45.642;13.756;2022-07-19T03:10:49;3.00;;;1.20;;
35646;SDS011;28680;45.642;13.756;2022-07-19T03:13:14;5.70;;;1.58;;
35646;SDS011;28680;45.642;13.756;2022-07-19T03:15:40;1.98;;;1.13;;
35646;SDS011;28680;45.642;13.756;2022-07-19T03:18:06;7.30;;;1.35;;
35646;SDS011;28680;45.642;13.756;2022-07-19T03:20:32;3.05;;;1.10;;
35646;SDS011;28680;45.642;13.756;2022-07-19T03:22:58;4.78;;;1.10;;
35646;SDS011;28680;45.642;13.756;2022-07-19T03:25:24;2.10;;;1.27;;
35646;SDS011;28680;45.642;13.756;2022-07-19T03:27:50;2.80;;;1.40;;
35646;SDS011;28680;45.642;13.756;2022-07-19T03:30:15;2.58;;;1.10;;
35646;SDS011;28680;45.642;13.756;2022-07-19T03:32:41;1.20;;;0.98;;
35646;SDS011;28680;45.642;13.756;2022-07-19T03:35:07;4.18;;;1.00;;
35646;SDS011;28680;45.642;13.756;2022-07-19T03:37:33;2.80;;;1.20;;
35646;SDS011;28680;45.642;13.756;2022-07-19T03:39:59;2.13;;;1.15;;
35646;SDS011;28680;45.642;13.756;2022-07-19T03:42:25;2.22;;;1.15;;
35646;SDS011;28680;45.642;13.756;2022-07-19T03:44:51;1.35;;;0.95;;
35646;SDS011;28680;45.642;13.756;2022-07-19T03:47:17;13.82;;;1.10;;
35646;SDS011;28680;45.642;13.756;2022-07-19T03:49:43;2.75;;;1.38;;
35646;SDS011;28680;45.642;13.756;2022-07-19T03:52:09;2.67;;;0.90;;
35646;SDS011;28680;45.642;13.756;2022-07-19T03:54:36;3.13;;;1.25;;
35646;SDS011;28680;45.642;13.756;2022-07-19T03:57:03;5.45;;;1.20;;
35646;SDS011;28680;45.642;13.756;2022-07-19T03:59:29;2.60;;;1.40;;
35646;SDS011;28680;45.642;13.756;2022-07-19T04:01:55;2.85;;;1.83;;
35646;SDS011;28680;45.642;13.756;2022-07-19T04:04:21;2.90;;;1.10;;
35646;SDS011;28680;45.642;13.756;2022-07-19T04:06:47;4.35;;;1.60;;
35646;SDS011;28680;45.642;13.756;2022-07-19T04:09:12;6.40;;;1.20;;
35646;SDS011;28680;45.642;13.756;2022-07-19T04:11:38;2.25;;;1.10;;
35646;SDS011;28680;45.642;13.756;2022-07-19T04:14:04;1.67;;;1.30;;
35646;SDS011;28680;45.642;13.756;2022-07-19T04:16:31;3.42;;;1.35;;
35646;SDS011;28680;45.642;13.756;2022-07-19T04:18:57;1.45;;;1.20;;
35646;SDS011;28680;45.642;13.756;2022-07-19T04:21:23;2.75;;;1.25;;
35646;SDS011;28680;45.642;13.756;2022-07-19T04:23:49;2.97;;;1.05;;
35646;SDS011;28680;45.642;13.756;2022-07-19T04:26:15;3.55;;;1.20;;
35646;SDS011;28680;45.642;13.756;2022-07-19T04:28:41;3.55;;;1.38;;
35646;SDS011;28680;45.642;13.756;2022-07-19T04:31:06;1.90;;;1.20;;
35646;SDS011;28680;45.642;13.756;2022-07-19T04:33:32;3.30;;;1.38;;
35646;SDS011;28680;45.642;13.756;2022-07-19T04:35:59;2.25;;;1.00;;
35646;SDS011;28680;45.642;13.756;2022-07-19T04:38:24;1.40;;;1.00;;
35646;SDS011;28680;45.642;13.756;2022-07-19T04:40:50;3.70;;;1.20;;
35646;SDS011;28680;45.642;13.756;2022-07-19T04:43:16;5.57;;;1.40;;
35646;SDS011;28680;45.642;13.756;2022-07-19T04:45:42;3.13;;;1.30;;
35646;SDS011;28680;45.642;13.756;2022-07-19T04:48:11;1.55;;;1.00;;
35646;SDS011;28680;45.642;13.756;2022-07-19T04:50:38;2.80;;;0.93;;
35646;SDS011;28680;45.642;13.756;2022-07-19T04:53:05;3.97;;;1.58;;
35646;SDS011;28680;45.642;13.756;2022-07-19T04:55:33;2.45;;;1.48;;
35646;SDS011;28680;45.642;13.756;2022-07-19T04:58:01;9.63;;;4.50;;
35646;SDS011;28680;45.642;13.756;2022-07-19T05:00:27;1.77;;;1.00;;
35646;SDS011;28680;45.642;13.756;2022-07-19T05:02:53;3.60;;;1.10;;
35646;SDS011;28680;45.642;13.756;2022-07-19T05:05:20;3.20;;;1.00;;
35646;SDS011;28680;45.642;13.756;2022-07-19T05:07:48;2.03;;;1.20;;
35646;SDS011;28680;45.642;13.756;2022-07-19T05:10:14;3.28;;;1.35;;
35646;SDS011;28680;45.642;13.756;2022-07-19T05:12:41;4.75;;;1.45;;
35646;SDS011;28680;45.642;13.756;2022-07-19T05:15:07;2.28;;;1.10;;
35646;SDS011;28680;45.642;13.756;2022-07-19T05:17:34;4.40;;;1.30;;
35646;SDS011;28680;45.642;13.756;2022-07-19T05:20:02;2.03;;;1.30;;
35646;SDS011;28680;45.642;13.756;2022-07-19T05:22:29;2.78;;;1.10;;
35646;SDS011;28680;45.642;13.756;2022-07-19T05:24:55;3.53;;;1.48;;
35646;SDS011;28680;45.642;13.756;2022-07-19T05:27:21;3.85;;;1.10;;
35646;SDS011;28680;45.642;13.756;2022-07-19T05:29:48;5.15;;;1.30;;
35646;SDS011;28680;45.642;13.756;2022-07-19T05:32:14;3.60;;;1.33;;
35646;SDS011;28680;45.642;13.756;2022-07-19T05:34:39;1.77;;;1.05;;
35646;SDS011;28680;45.642;13.756;2022-07-19T05:37:05;2.95;;;1.17;;
35646;SDS011;28680;45.642;13.756;2022-07-19T05:39:31;2.58;;;1.20;;
35646;SDS011;28680;45.642;13.756;2022-07-19T05:41:57;4.57;;;1.30;;
35646;SDS011;28680;45.642;13.756;2022-07-19T05:44:23;5.38;;;1.25;;
35646;SDS011;28680;45.642;13.756;2022-07-19T05:46:49;2.63;;;1.30;;
35646;SDS011;28680;45.642;13.756;2022-07-19T05:49:15;5.05;;;1.20;;
35646;SDS011;28680;45.642;13.756;2022-07-19T05:51:41;9.15;;;1.70;;
35646;SDS011;28680;45.642;13.756;2022-07-19T05:54:07;3.78;;;1.52;;
35646;SDS011;28680;45.642;13.756;2022-07-19T05:56:34;4.32;;;1.98;;
35646;SDS011;28680;45.642;13.756;2022-07-19T05:59:00;4.85;;;1.15;;
35646;SDS011;28680;45.642;13.756;2022-07-19T06:01:29;5.13;;;1.52;;
35646;SDS011;28680;45.642;13.756;2022-07-19T06:03:56;6.22;;;1.42;;
35646;SDS011;28680;45.642;13.756;2022-07-19T06:06:26;6.68;;;1.48;;
35646;SDS011;28680;45.642;13.756;2022-07-19T06:08:55;3.25;;;1.30;;
35646;SDS011;28680;45.642;13.756;2022-07-19T06:11:22;6.07;;;1.27;;
35646;SDS011;28680;45.642;13.756;2022-07-19T06:13:48;3.15;;;1.73;;
35646;SDS011;28680;45.642;13.756;2022-07-19T06:16:15;5.90;;;1.50;;
35646;SDS011;28680;45.642;13.756;2022-07-19T06:18:41;3.13;;;1.15;;
35646;SDS011;28680;45.642;13.756;2022-07-19T06:21:09;4.10;;;1.17;;
35646;SDS011;28680;45.642;13.756;2022-07-19T06:23:39;3.20;;;1.23;;
35646;SDS011;28680;45.642;13.756;2022-07-19T06:26:09;3.97;;;1.23;;
35646;SDS011;28680;45.642;13.756;2022-07-19T06:28:36;2.95;;;1.60;;
35646;SDS011;28680;45.642;13.756;2022-07-19T06:31:03;3.08;;;1.23;;
35646;SDS011;28680;45.642;13.756;2022-07-19T06:33:29;5.55;;;1.20;;
35646;SDS011;28680;45.642;13.756;2022-07-19T06:35:55;3.13;;;1.20;;
35646;SDS011;28680;45.642;13.756;2022-07-19T06:38:21;3.00;;;1.40;;
35646;SDS011;28680;45.642;13.756;2022-07-19T06:40:47;2.40;;;1.27;;
35646;SDS011;28680;45.642;13.756;2022-07-19T06:43:13;3.63;;;1.30;;
35646;SDS011;28680;45.642;13.756;2022-07-19T06:45:38;2.95;;;1.27;;
35646;SDS011;28680;45.642;13.756;2022-07-19T06:48:05;2.92;;;1.40;;
35646;SDS011;28680;45.642;13.756;2022-07-19T06:50:31;3.45;;;1.20;;
35646;SDS011;28680;45.642;13.756;2022-07-19T06:52:57;3.58;;;1.40;;
35646;SDS011;28680;45.642;13.756;2022-07-19T06:55:23;6.97;;;1.90;;
35646;SDS011;28680;45.642;13.756;2022-07-19T06:57:49;4.32;;;1.52;;
35646;SDS011;28680;45.642;13.756;2022-07-19T07:00:15;2.22;;;1.00;;
35646;SDS011;28680;45.642;13.756;2022-07-19T07:02:41;1.85;;;1.13;;
35646;SDS011;28680;45.642;13.756;2022-07-19T07:05:08;5.80;;;1.40;;
35646;SDS011;28680;45.642;13.756;2022-07-19T07:07:36;1.00;;;0.80;;
35646;SDS011;28680;45.642;13.756;2022-07-19T07:10:03;3.70;;;1.13;;
35646;SDS011;28680;45.642;13.756;2022-07-19T07:12:31;4.75;;;1.10;;
35646;SDS011;28680;45.642;13.756;2022-07-19T07:14:58;1.98;;;0.90;;
35646;SDS011;28680;45.642;13.756;2022-07-19T07:17:24;3.10;;;1.10;;
35646;SDS011;28680;45.642;13.756;2022-07-19T07:19:50;1.30;;;0.90;;
35646;SDS011;28680;45.642;13.756;2022-07-19T07:22:15;1.75;;;1.00;;
35646;SDS011;28680;45.642;13.756;2022-07-19T07:24:41;2.65;;;1.17;;
35646;SDS011;28680;45.642;13.756;2022-07-19T07:27:07;2.95;;;1.30;;
35646;SDS011;28680;45.642;13.756;2022-07-19T07:29:33;6.30;;;1.27;;
35646;SDS011;28680;45.642;13.756;2022-07-19T07:32:02;3.47;;;0.93;;
35646;SDS011;28680;45.642;13.756;2022-07-19T07:34:28;4.82;;;1.10;;
35646;SDS011;28680;45.642;13.756;2022-07-19T07:36:57;3.08;;;0.95;;
35646;SDS011;28680;45.642;13.756;2022-07-19T07:39:23;2.13;;;1.00;;
35646;SDS011;28680;45.642;13.756;2022-07-19T07:41:49;1.65;;;0.90;;
35646;SDS011;28680;45.642;13.756;2022-07-19T07:44:15;3.58;;;0.90;;
35646;SDS011;28680;45.642;13.756;2022-07-19T07:46:41;3.22;;;1.08;;
35646;SDS011;28680;45.642;13.756;2022-07-19T07:49:07;2.50;;;1.00;;
35646;SDS011;28680;45.642;13.756;2022-07-19T07:51:45;2.97;;;0.80;;
35646;SDS011;28680;45.642;13.756;2022-07-19T07:54:11;1.65;;;0.77;;
35646;SDS011;28680;45.642;13.756;2022-07-19T07:56:37;5.50;;;1.13;;
35646;SDS011;28680;45.642;13.756;2022-07-19T07:59:03;4.38;;;1.20;;
35646;SDS011;28680;45.642;13.756;2022-07-19T08:01:29;3.65;;;1.02;;
35646;SDS011;28680;45.642;13.756;2022-07-19T08:03:55;1.58;;;0.90;;
35646;SDS011;28680;45.642;13.756;2022-07-19T08:06:22;3.53;;;1.00;;
35646;SDS011;28680;45.642;13.756;2022-07-19T08:08:48;4.63;;;1.23;;
35646;SDS011;28680;45.642;13.756;2022-07-19T08:11:16;1.92;;;1.10;;
35646;SDS011;28680;45.642;13.756;2022-07-19T08:13:52;3.05;;;1.30;;
35646;SDS011;28680;45.642;13.756;2022-07-19T08:16:17;2.83;;;1.10;;
35646;SDS011;28680;45.642;13.756;2022-07-19T08:18:43;3.58;;;1.15;;
35646;SDS011;28680;45.642;13.756;2022-07-19T08:21:09;2.00;;;1.10;;
35646;SDS011;28680;45.642;13.756;2022-07-19T08:23:35;3.13;;;1.23;;
35646;SDS011;28680;45.642;13.756;2022-07-19T08:26:01;2.08;;;1.02;;
35646;SDS011;28680;45.642;13.756;2022-07-19T08:28:27;2.33;;;1.27;;
35646;SDS011;28680;45.642;13.756;2022-07-19T08:30:56;2.22;;;1.15;;
35646;SDS011;28680;45.642;13.756;2022-07-19T08:33:22;4.00;;;1.20;;
35646;SDS011;28680;45.642;13.756;2022-07-19T08:35:48;3.95;;;1.10;;
35646;SDS011;28680;45.642;13.756;2022-07-19T08:38:14;1.65;;;1.00;;
35646;SDS011;28680;45.642;13.756;2022-07-19T08:40:41;1.70;;;1.02;;
35646;SDS011;28680;45.642;13.756;2022-07-19T08:43:08;1.48;;;1.00;;
35646;SDS011;28680;45.642;13.756;2022-07-19T08:45:35;2.10;;;1.10;;
35646;SDS011;28680;45.642;13.756;2022-07-19T08:48:04;1.80;;;1.08;;
35646;SDS011;28680;45.642;13.756;2022-07-19T08:50:35;6.00;;;1.10;;
35646;SDS011;28680;45.642;13.756;2022-07-19T08:53:02;2.42;;;1.13;;
35646;SDS011;28680;45.642;13.756;2022-07-19T08:55:28;5.57;;;1.30;;
35646;SDS011;28680;45.642;13.756;2022-07-19T08:57:54;1.80;;;1.20;;
35646;SDS011;28680;45.642;13.756;2022-07-19T09:00:43;3.80;;;1.30;;
35646;SDS011;28680;45.642;13.756;2022-07-19T09:03:11;2.30;;;1.30;;
35646;SDS011;28680;45.642;13.756;2022-07-19T09:05:38;4.65;;;1.30;;
35646;SDS011;28680;45.642;13.756;2022-07-19T09:10:35;2.95;;;1.27;;
35646;SDS011;28680;45.642;13.756;2022-07-19T09:13:10;2.67;;;1.70;;
35646;SDS011;28680;45.642;13.756;2022-07-19T09:15:49;3.38;;;1.92;;
35646;SDS011;28680;45.642;13.756;2022-07-19T09:18:29;4.88;;;2.30;;
35646;SDS011;28680;45.642;13.756;2022-07-19T09:20:59;3.92;;;2.10;;
35646;SDS011;28680;45.642;13.756;2022-07-19T09:23:30;4.43;;;1.80;;
35646;SDS011;28680;45.642;13.756;2022-07-19T09:26:02;4.97;;;1.45;;
35646;SDS011;28680;45.642;13.756;2022-07-19T09:28:31;4.03;;;1.48;;
35646;SDS011;28680;45.642;13.756;2022-07-19T09:30:59;3.33;;;2.40;;
35646;SDS011;28680;45.642;13.756;2022-07-19T09:33:31;3.50;;;1.20;;
35646;SDS011;28680;45.642;13.756;2022-07-19T09:35:59;7.90;;;4.45;;
35646;SDS011;28680;45.642;13.756;2022-07-19T09:38:29;8.75;;;5.43;;
35646;SDS011;28680;45.642;13.756;2022-07-19T09:43:31;4.57;;;1.70;;
35646;SDS011;28680;45.642;13.756;2022-07-19T09:46:43;4.20;;;3.05;;
35646;SDS011;28680;45.642;13.756;2022-07-19T09:49:11;8.05;;;5.53;;
35646;SDS011;28680;45.642;13.756;2022-07-19T09:51:46;13.73;;;6.57;;
35646;SDS011;28680;45.642;13.756;2022-07-19T09:54:20;9.52;;;5.22;;
35646;SDS011;28680;45.642;13.756;2022-07-19T09:56:53;9.32;;;5.90;;
35646;SDS011;28680;45.642;13.756;2022-07-19T09:59:34;8.48;;;4.95;;
35646;SDS011;28680;45.642;13.756;2022-07-19T10:04:38;10.13;;;6.60;;
35646;SDS011;28680;45.642;13.756;2022-07-19T10:07:07;14.90;;;8.52;;
35646;SDS011;28680;45.642;13.756;2022-07-19T10:09:33;14.27;;;6.47;;
35646;SDS011;28680;45.642;13.756;2022-07-19T10:12:00;15.50;;;7.85;;
35646;SDS011;28680;45.642;13.756;2022-07-19T10:14:26;17.67;;;10.20;;
35646;SDS011;28680;45.642;13.756;2022-07-19T10:17:14;17.55;;;10.15;;
35646;SDS011;28680;45.642;13.756;2022-07-19T10:20:06;20.50;;;11.57;;
35646;SDS011;28680;45.642;13.756;2022-07-19T10:22:33;17.95;;;10.65;;
35646;SDS011;28680;45.642;13.756;2022-07-19T10:27:42;21.50;;;11.43;;
35646;SDS011;28680;45.642;13.756;2022-07-19T10:32:48;21.27;;;11.30;;
35646;SDS011;28680;45.642;13.756;2022-07-19T10:37:53;19.80;;;10.52;;
35646;SDS011;28680;45.642;13.756;2022-07-19T10:40:44;15.23;;;8.45;;
35646;SDS011;28680;45.642;13.756;2022-07-19T10:43:22;7.10;;;2.75;;
35646;SDS011;28680;45.642;13.756;2022-07-19T10:48:40;6.25;;;3.83;;
35646;SDS011;28680;45.642;13.756;2022-07-19T10:51:28;16.88;;;8.68;;
35646;SDS011;28680;45.642;13.756;2022-07-19T10:58:59;13.77;;;8.20;;
35646;SDS011;28680;45.642;13.756;2022-07-19T11:01:31;17.75;;;8.93;;
35646;SDS011;28680;45.642;13.756;2022-07-19T11:07:09;23.35;;;12.80;;
35646;SDS011;28680;45.642;13.756;2022-07-19T11:09:54;17.02;;;9.48;;
35646;SDS011;28680;45.642;13.756;2022-07-19T11:12:40;21.38;;;11.43;;
35646;SDS011;28680;45.642;13.756;2022-07-19T11:15:10;13.27;;;7.50;;
35646;SDS011;28680;45.642;13.756;2022-07-19T11:17:37;12.80;;;6.85;;
35646;SDS011;28680;45.642;13.756;2022-07-19T11:20:10;9.00;;;4.25;;
35646;SDS011;28680;45.642;13.756;2022-07-19T11:22:42;14.23;;;6.75;;
35646;SDS011;28680;45.642;13.756;2022-07-19T11:25:11;18.23;;;9.80;;
35646;SDS011;28680;45.642;13.756;2022-07-19T11:27:43;18.92;;;10.43;;
35646;SDS011;28680;45.642;13.756;2022-07-19T11:30:12;25.48;;;14.30;;
35646;SDS011;28680;45.642;13.756;2022-07-19T11:32:39;29.45;;;15.40;;
35646;SDS011;28680;45.642;13.756;2022-07-19T11:35:10;5.65;;;2.97;;
35646;SDS011;28680;45.642;13.756;2022-07-19T11:37:41;26.52;;;13.75;;
35646;SDS011;28680;45.642;13.756;2022-07-19T11:40:08;29.77;;;15.20;;
35646;SDS011;28680;45.642;13.756;2022-07-19T11:45:19;28.83;;;14.93;;
35646;SDS011;28680;45.642;13.756;2022-07-19T11:47:51;33.85;;;17.83;;
35646;SDS011;28680;45.642;13.756;2022-07-19T11:50:22;20.23;;;11.50;;
35646;SDS011;28680;45.642;13.756;2022-07-19T11:52:58;28.52;;;15.60;;
35646;SDS011;28680;45.642;13.756;2022-07-19T11:57:54;10.50;;;5.78;;
35646;SDS011;28680;45.642;13.756;2022-07-19T12:00:22;26.92;;;15.63;;
35646;SDS011;28680;45.642;13.756;2022-07-19T12:03:06;23.13;;;13.35;;
35646;SDS011;28680;45.642;13.756;2022-07-19T12:05:34;31.80;;;18.10;;
35646;SDS011;28680;45.642;13.756;2022-07-19T12:08:03;32.95;;;17.40;;
35646;SDS011;28680;45.642;13.756;2022-07-19T12:10:36;27.70;;;16.08;;
35646;SDS011;28680;45.642;13.756;2022-07-19T12:13:27;26.00;;;13.98;;
35646;SDS011;28680;45.642;13.756;2022-07-19T12:15:56;30.40;;;17.63;;
35646;SDS011;28680;45.642;13.756;2022-07-19T12:18:47;34.47;;;19.45;;
35646;SDS011;28680;45.642;13.756;2022-07-19T12:21:55;24.63;;;13.70;;
35646;SDS011;28680;45.642;13.756;2022-07-19T12:24:22;18.80;;;11.65;;
35646;SDS011;28680;45.642;13.756;2022-07-19T12:29:35;7.95;;;3.90;;
35646;SDS011;28680;45.642;13.756;2022-07-19T12:32:11;33.53;;;18.23;;
35646;SDS011;28680;45.642;13.756;2022-07-19T12:34:42;27.08;;;15.18;;
35646;SDS011;28680;45.642;13.756;2022-07-19T12:37:28;30.65;;;16.95;;
35646;SDS011;28680;45.642;13.756;2022-07-19T12:39:58;17.48;;;9.73;;
35646;SDS011;28680;45.642;13.756;2022-07-19T12:42:49;20.02;;;11.43;;
35646;SDS011;28680;45.642;13.756;2022-07-19T12:45:33;28.05;;;14.55;;
35646;SDS011;28680;45.642;13.756;2022-07-19T12:48:26;33.20;;;18.02;;
35646;SDS011;28680;45.642;13.756;2022-07-19T12:50:53;30.70;;;15.63;;
35646;SDS011;28680;45.642;13.756;2022-07-19T12:53:19;23.48;;;12.45;;
35646;SDS011;28680;45.642;13.756;2022-07-19T12:55:46;26.02;;;13.40;;
35646;SDS011;28680;45.642;13.756;2022-07-19T12:58:14;23.45;;;11.75;;
35646;SDS011;28680;45.642;13.756;2022-07-19T13:01:00;22.63;;;13.25;;
35646;SDS011;28680;45.642;13.756;2022-07-19T13:03:27;22.63;;;10.85;;
35646;SDS011;28680;45.642;13.756;2022-07-19T13:05:53;22.20;;;10.68;;
35646;SDS011;28680;45.642;13.756;2022-07-19T13:08:19;10.13;;;5.75;;
35646;SDS011;28680;45.642;13.756;2022-07-19T13:10:46;18.65;;;10.00;;
35646;SDS011;28680;45.642;13.756;2022-07-19T13:13:11;23.33;;;10.95;;
35646;SDS011;28680;45.642;13.756;2022-07-19T13:15:37;21.50;;;12.23;;
35646;SDS011;28680;45.642;13.756;2022-07-19T13:18:03;20.40;;;10.35;;
35646;SDS011;28680;45.642;13.756;2022-07-19T13:20:29;19.83;;;10.27;;
35646;SDS011;28680;45.642;13.756;2022-07-19T13:22:55;17.90;;;9.43;;
35646;SDS011;28680;45.642;13.756;2022-07-19T13:25:21;17.70;;;9.27;;
35646;SDS011;28680;45.642;13.756;2022-07-19T13:27:47;13.43;;;6.40;;
35646;SDS011;28680;45.642;13.756;2022-07-19T13:30:13;5.25;;;2.90;;
35646;SDS011;28680;45.642;13.756;2022-07-19T13:32:39;17.15;;;8.93;;
35646;SDS011;28680;45.642;13.756;2022-07-19T13:35:05;13.32;;;5.72;;
35646;SDS011;28680;45.642;13.756;2022-07-19T13:37:32;9.68;;;5.28;;
35646;SDS011;28680;45.642;13.756;2022-07-19T13:39:58;8.32;;;5.45;;
35646;SDS011;28680;45.642;13.756;2022-07-19T13:42:24;2.63;;;1.60;;
35646;SDS011;28680;45.642;13.756;2022-07-19T13:44:49;6.20;;;1.70;;
35646;SDS011;28680;45.642;13.756;2022-07-19T13:47:15;9.40;;;2.28;;
35646;SDS011;28680;45.642;13.756;2022-07-19T13:49:41;3.33;;;1.23;;
35646;SDS011;28680;45.642;13.756;2022-07-19T13:52:07;8.68;;;1.50;;
35646;SDS011;28680;45.642;13.756;2022-07-19T13:54:34;12.57;;;2.40;;
35646;SDS011;28680;45.642;13.756;2022-07-19T13:56:59;7.15;;;1.65;;
35646;SDS011;28680;45.642;13.756;2022-07-19T13:59:25;5.68;;;1.35;;
35646;SDS011;28680;45.642;13.756;2022-07-19T14:01:52;3.60;;;1.60;;
35646;SDS011;28680;45.642;13.756;2022-07-19T14:04:18;3.53;;;1.42;;
35646;SDS011;28680;45.642;13.756;2022-07-19T14:06:43;2.72;;;1.08;;
35646;SDS011;28680;45.642;13.756;2022-07-19T14:09:09;3.05;;;1.38;;
35646;SDS011;28680;45.642;13.756;2022-07-19T14:11:35;4.53;;;1.23;;
35646;SDS011;28680;45.642;13.756;2022-07-19T14:14:01;7.72;;;1.60;;
35646;SDS011;28680;45.642;13.756;2022-07-19T14:16:27;2.25;;;1.30;;
35646;SDS011;28680;45.642;13.756;2022-07-19T14:18:52;2.45;;;1.25;;
35646;SDS011;28680;45.642;13.756;2022-07-19T14:21:19;3.33;;;1.10;;
35646;SDS011;28680;45.642;13.756;2022-07-19T14:23:45;5.13;;;1.10;;
35646;SDS011;28680;45.642;13.756;2022-07-19T14:26:11;3.72;;;1.00;;
35646;SDS011;28680;45.642;13.756;2022-07-19T14:28:37;3.88;;;0.98;;
35646;SDS011;28680;45.642;13.756;2022-07-19T14:31:03;1.92;;;1.17;;
35646;SDS011;28680;45.642;13.756;2022-07-19T14:33:29;3.97;;;0.90;;
35646;SDS011;28680;45.642;13.756;2022-07-19T14:35:54;4.13;;;1.10;;
35646;SDS011;28680;45.642;13.756;2022-07-19T14:38:20;1.38;;;0.82;;
35646;SDS011;28680;45.642;13.756;2022-07-19T14:40:46;2.90;;;1.05;;
35646;SDS011;28680;45.642;13.756;2022-07-19T14:43:12;4.38;;;1.08;;
35646;SDS011;28680;45.642;13.756;2022-07-19T14:45:38;3.25;;;0.90;;
35646;SDS011;28680;45.642;13.756;2022-07-19T14:48:04;3.13;;;0.90;;
35646;SDS011;28680;45.642;13.756;2022-07-19T14:50:32;3.22;;;1.05;;
35646;SDS011;28680;45.642;13.756;2022-07-19T14:52:58;3.20;;;1.08;;
35646;SDS011;28680;45.642;13.756;2022-07-19T14:55:24;3.45;;;0.85;;
35646;SDS011;28680;45.642;13.756;2022-07-19T14:57:52;2.92;;;1.33;;
35646;SDS011;28680;45.642;13.756;2022-07-19T15:00:18;2.25;;;1.00;;
35646;SDS011;28680;45.642;13.756;2022-07-19T15:02:44;2.35;;;1.00;;
35646;SDS011;28680;45.642;13.756;2022-07-19T15:26:46;2.67;;;1.30;;
35646;SDS011;28680;45.642;13.756;2022-07-19T15:29:18;4.28;;;0.95;;
35646;SDS011;28680;45.642;13.756;2022-07-19T15:31:44;3.08;;;1.20;;
35646;SDS011;28680;45.642;13.756;2022-07-19T15:34:11;2.40;;;1.10;;